Time;durP1;ratioP1;P1;durP2;ratioP2;P2;SDS_P1;SDS_P2;PMS_P1;PMS_P2;Temp;Humidity;BMP_temperature;BMP_pressure;BME280_temperature;BME280_humidity;BME280_pressure;Samples;Min_cycle;Max_cycle;Signal;HPM_P1;HPM_P2
2023/05/03 00:00:29;;;;;;;2.70;1.90;;;;;;;3.99;100.00;63142.66;4975294;28;20023;-95
2023/05/03 00:02:56;;;;;;;7.60;2.40;;;;;;;3.96;100.00;63139.28;4980962;28;20038;-94
2023/05/03 00:05:21;;;;;;;4.20;2.22;;;;;;;3.92;100.00;63136.16;4985523;28;20055;-94
2023/05/03 00:07:46;;;;;;;3.40;2.00;;;;;;;3.89;100.00;63133.16;4980826;28;20023;-96
2023/05/03 00:10:14;;;;;;;7.40;2.10;;;;;;;3.86;100.00;63129.84;4978808;28;20077;-95
2023/05/03 00:12:41;;;;;;;5.05;2.03;;;;;;;3.83;100.00;63126.97;4976046;28;20110;-95
2023/05/03 00:15:07;;;;;;;4.95;2.40;;;;;;;3.80;100.00;63124.63;4972344;28;20054;-95
2023/05/03 00:17:32;;;;;;;7.80;2.25;;;;;;;3.77;100.00;63121.75;4973772;28;20030;-95
2023/05/03 00:19:58;;;;;;;3.17;2.07;;;;;;;3.74;100.00;63118.44;4972918;28;20029;-94
2023/05/03 00:22:24;;;;;;;2.97;2.10;;;;;;;3.71;100.00;63115.38;4972963;28;20105;-95
2023/05/03 00:24:50;;;;;;;4.03;1.87;;;;;;;3.68;100.00;63111.81;4966800;28;20050;-95
2023/05/03 00:27:16;;;;;;;4.05;2.50;;;;;;;3.65;100.00;63108.69;4973442;28;20486;-94
2023/05/03 00:29:41;;;;;;;5.47;2.20;;;;;;;3.62;100.00;63105.44;4973372;28;20114;-94
2023/05/03 00:32:09;;;;;;;6.30;2.53;;;;;;;3.59;100.00;63102.91;4973492;28;20058;-95
2023/05/03 00:34:34;;;;;;;5.95;2.35;;;;;;;3.56;100.00;63100.25;4967754;28;20023;-95
2023/05/03 00:37:00;;;;;;;7.27;2.50;;;;;;;3.53;100.00;63096.69;4971909;28;20133;-94
2023/05/03 00:39:31;;;;;;;5.50;2.53;;;;;;;3.49;100.00;63093.47;4973163;28;20022;-95
2023/05/03 00:42:06;;;;;;;7.82;2.75;;;;;;;3.47;100.00;63091.16;4973535;28;20031;-94
2023/05/03 00:44:31;;;;;;;6.17;2.43;;;;;;;3.44;100.00;63088.50;4956065;28;20031;-95
2023/05/03 00:46:57;;;;;;;7.27;2.40;;;;;;;3.41;100.00;63085.28;4972573;28;20369;-95
2023/05/03 00:49:24;;;;;;;5.87;2.70;;;;;;;3.38;100.00;63081.97;4973065;28;20042;-94
2023/05/03 00:51:52;;;;;;;4.38;2.40;;;;;;;3.36;100.00;63079.59;4973183;28;20019;-96
2023/05/03 00:54:19;;;;;;;10.40;2.75;;;;;;;3.33;100.00;63076.69;4965808;28;20467;-95
2023/05/03 00:56:45;;;;;;;6.65;2.60;;;;;;;3.30;100.00;63074.38;4969740;28;20081;-94
2023/05/03 00:59:11;;;;;;;6.22;2.42;;;;;;;3.28;100.00;63071.72;4972308;28;20442;-94
2023/05/03 01:01:36;;;;;;;7.07;2.70;;;;;;;3.25;100.00;63068.91;4972820;28;20541;-94
2023/05/03 01:04:08;;;;;;;8.30;2.60;;;;;;;3.22;100.00;63065.69;4972948;28;20099;-95
2023/05/03 01:06:36;;;;;;;4.90;2.30;;;;;;;3.19;100.00;63063.78;4972359;28;20030;-96
2023/05/03 01:09:20;;;;;;;7.72;2.85;;;;;;;3.16;100.00;63061.38;4972311;28;20545;-95
2023/05/03 01:11:47;;;;;;;6.05;2.65;;;;;;;3.14;100.00;63058.31;4973730;28;20053;-95
2023/05/03 01:14:31;;;;;;;7.72;2.65;;;;;;;3.11;100.00;63055.59;4972620;28;20030;-95
2023/05/03 01:17:04;;;;;;;7.03;2.35;;;;;;;3.09;100.00;63052.97;4961235;28;20046;-93
2023/05/03 01:19:41;;;;;;;5.82;2.33;;;;;;;3.06;100.00;63049.88;4957360;29;20062;-95
2023/05/03 01:22:31;;;;;;;4.20;2.30;;;;;;;3.03;100.00;63046.59;4957455;29;20430;-95
2023/05/03 01:25:06;;;;;;;7.10;2.57;;;;;;;3.00;100.00;63043.94;4969873;28;20290;-93
2023/05/03 01:27:31;;;;;;;8.60;2.60;;;;;;;2.98;100.00;63041.22;4976328;28;20034;-93
2023/05/03 01:29:56;;;;;;;5.33;2.60;;;;;;;2.95;100.00;63038.50;4971923;28;20126;-95
2023/05/03 01:32:30;;;;;;;6.38;2.38;;;;;;;2.92;100.00;63035.78;4957146;29;20031;-96
2023/05/03 01:35:11;;;;;;;7.53;2.93;;;;;;;2.90;100.00;63033.13;4957298;29;20487;-94
2023/05/03 01:37:38;;;;;;;11.40;2.83;;;;;;;2.87;100.00;63030.06;4956869;29;20042;-94
2023/05/03 01:40:07;;;;;;;10.10;3.08;;;;;;;2.84;100.00;63027.84;4957353;29;20019;-94
2023/05/03 01:42:37;;;;;;;4.05;2.50;;;;;;;2.81;100.00;63024.22;4956639;29;20082;-95
2023/05/03 01:45:06;;;;;;;8.35;2.60;;;;;;;2.78;100.00;63021.63;4956628;28;20027;-94
2023/05/03 01:47:32;;;;;;;4.50;2.35;;;;;;;2.75;100.00;63018.25;4956705;29;20043;-93
2023/05/03 01:50:07;;;;;;;6.07;2.70;;;;;;;2.72;100.00;63015.78;4957342;29;20028;-94
2023/05/03 01:52:32;;;;;;;5.97;2.55;;;;;;;2.69;100.00;63013.28;4956903;29;20054;-95
2023/05/03 01:54:58;;;;;;;5.43;3.00;;;;;;;2.67;100.00;63010.41;4970718;28;20109;-93
2023/05/03 01:57:24;;;;;;;6.03;2.57;;;;;;;2.63;100.00;63007.44;4976067;28;20297;-94
2023/05/03 01:59:49;;;;;;;11.63;3.05;;;;;;;2.60;100.00;63004.28;4976325;28;20038;-95
2023/05/03 02:02:15;;;;;;;7.13;2.87;;;;;;;2.56;100.00;63000.72;4976264;28;20030;-94
2023/05/03 02:04:40;;;;;;;7.53;3.20;;;;;;;2.54;100.00;62997.69;4976435;28;20114;-94
2023/05/03 02:07:06;;;;;;;5.53;2.70;;;;;;;2.50;100.00;62994.28;4975664;28;20074;-94
2023/05/03 02:09:31;;;;;;;6.57;2.45;;;;;;;2.48;100.00;62991.31;4981008;28;20058;-94
2023/05/03 02:11:56;;;;;;;6.03;2.90;;;;;;;2.44;100.00;62987.69;4983037;28;20062;-94
2023/05/03 02:14:21;;;;;;;6.03;2.60;;;;;;;2.41;100.00;62985.03;4973914;28;20058;-95
2023/05/03 02:16:47;;;;;;;4.97;2.60;;;;;;;2.39;100.00;62982.31;5001214;28;20022;-94
2023/05/03 02:19:13;;;;;;;4.70;2.88;;;;;;;2.36;100.00;62979.91;5000749;28;20014;-94
2023/05/03 02:21:38;;;;;;;11.13;2.67;;;;;;;2.34;100.00;62977.75;4996605;28;20015;-94
2023/05/03 02:24:04;;;;;;;4.83;2.30;;;;;;;2.32;100.00;62975.13;4991218;28;20022;-94
2023/05/03 02:26:29;;;;;;;9.07;2.83;;;;;;;2.29;100.00;62972.75;4974816;28;20035;-93
2023/05/03 02:28:57;;;;;;;8.60;2.47;;;;;;;2.27;100.00;62970.25;4978993;28;20042;-94
2023/05/03 02:31:23;;;;;;;6.40;2.92;;;;;;;2.25;100.00;62968.09;4979336;28;20030;-93
2023/05/03 02:33:49;;;;;;;6.82;2.50;;;;;;;2.22;100.00;62966.03;4975526;28;20469;-93
2023/05/03 02:36:15;;;;;;;8.70;2.70;;;;;;;2.20;100.00;62964.06;4974448;28;20037;-94
2023/05/03 02:38:40;;;;;;;4.95;2.63;;;;;;;2.18;100.00;62961.81;4975962;28;20031;-93
2023/05/03 02:41:05;;;;;;;9.07;2.87;;;;;;;2.15;100.00;62959.16;4980500;28;20525;-93
2023/05/03 02:43:31;;;;;;;6.13;2.90;;;;;;;2.12;100.00;62956.44;4987213;28;20030;-94
2023/05/03 02:45:56;;;;;;;6.07;2.73;;;;;;;2.10;100.00;62954.63;4988735;28;20049;-93
2023/05/03 02:48:21;;;;;;;7.10;2.90;;;;;;;2.08;100.00;62952.16;4972936;28;20319;-93
2023/05/03 02:50:47;;;;;;;6.47;2.90;;;;;;;2.06;100.00;62950.69;4991713;28;20117;-95
2023/05/03 02:53:12;;;;;;;8.47;3.03;;;;;;;2.05;100.00;62949.00;4983994;28;20031;-94
2023/05/03 02:55:38;;;;;;;11.43;3.20;;;;;;;2.03;100.00;62947.38;4979052;28;20026;-94
2023/05/03 02:58:03;;;;;;;8.70;3.20;;;;;;;2.02;100.00;62945.88;4987731;28;20062;-93
2023/05/03 03:00:29;;;;;;;12.93;3.83;;;;;;;2.01;100.00;62945.16;4990850;28;20390;-93
2023/05/03 03:02:54;;;;;;;4.60;3.20;;;;;;;2.00;100.00;62944.16;4968783;28;20085;-93
2023/05/03 03:05:19;;;;;;;7.17;3.00;;;;;;;1.99;100.00;62943.47;4983448;28;20023;-94
2023/05/03 03:07:45;;;;;;;10.50;3.60;;;;;;;1.99;100.00;62942.75;4976746;28;20379;-94
2023/05/03 03:10:10;;;;;;;7.83;3.43;;;;;;;1.98;100.00;62941.59;4974958;28;20026;-94
2023/05/03 03:12:36;;;;;;;4.57;2.93;;;;;;;1.96;100.00;62940.59;4982794;28;20023;-94
2023/05/03 03:15:02;;;;;;;6.88;3.15;;;;;;;1.95;100.00;62939.44;4981489;28;20031;-93
2023/05/03 03:17:28;;;;;;;8.25;3.35;;;;;;;1.94;100.00;62938.38;4981798;28;20030;-95
2023/05/03 03:19:53;;;;;;;10.37;3.77;;;;;;;1.93;100.00;62937.19;4978952;28;20026;-94
2023/05/03 03:22:18;;;;;;;6.57;3.30;;;;;;;1.91;100.00;62935.00;4982053;28;20457;-94
2023/05/03 03:24:44;;;;;;;6.60;3.73;;;;;;;1.89;100.00;62933.34;4991841;28;20042;-94
2023/05/03 03:27:09;;;;;;;8.30;3.22;;;;;;;1.87;100.00;62930.78;4995377;28;20079;-93
2023/05/03 03:29:35;;;;;;;6.73;3.37;;;;;;;1.85;100.00;62928.47;4997062;28;20014;-93
2023/05/03 03:32:00;;;;;;;5.80;3.20;;;;;;;1.83;100.00;62926.47;4997938;28;20039;-93
2023/05/03 03:34:25;;;;;;;7.47;3.57;;;;;;;1.81;100.00;62924.91;4997795;28;20027;-93
2023/05/03 03:36:51;;;;;;;12.48;3.42;;;;;;;1.79;100.00;62923.75;4993771;28;20030;-93
2023/05/03 03:39:16;;;;;;;10.10;3.17;;;;;;;1.77;100.00;62921.44;4994984;28;20027;-94
2023/05/03 03:41:42;;;;;;;12.93;3.53;;;;;;;1.76;100.00;62919.88;4976760;28;20023;-93
2023/05/03 03:44:07;;;;;;;8.88;3.40;;;;;;;1.73;100.00;62917.06;4971800;28;20026;-93
2023/05/03 03:46:33;;;;;;;6.90;3.50;;;;;;;1.72;100.00;62915.81;4973328;28;20023;-93
2023/05/03 03:48:58;;;;;;;9.10;4.03;;;;;;;1.71;100.00;62914.50;4971781;28;20019;-93
2023/05/03 03:51:24;;;;;;;11.93;3.95;;;;;;;1.70;100.00;62913.91;4953958;29;20066;-93
2023/05/03 03:53:49;;;;;;;8.13;3.60;;;;;;;1.68;100.00;62912.13;4954078;28;20479;-92
2023/05/03 03:56:14;;;;;;;7.20;3.87;;;;;;;1.66;100.00;62910.38;4971985;23;20118;-93
2023/05/03 03:58:40;;;;;;;11.37;3.93;;;;;;;1.65;100.00;62908.66;4958691;29;20054;-93
2023/05/03 04:01:05;;;;;;;9.33;3.87;;;;;;;1.63;100.00;62907.16;4954930;29;20485;-94
2023/05/03 04:03:30;;;;;;;12.20;3.47;;;;;;;1.62;100.00;62906.25;4952569;29;20637;-94
2023/05/03 04:05:57;;;;;;;7.20;3.53;;;;;;;1.60;100.00;62904.34;4953578;29;20463;-94
2023/05/03 04:08:22;;;;;;;8.00;3.55;;;;;;;1.58;100.00;62902.63;4953261;29;20479;-94
2023/05/03 04:10:48;;;;;;;5.10;3.40;;;;;;;1.57;100.00;62901.13;4953942;29;20023;-94
2023/05/03 04:13:13;;;;;;;5.33;3.50;;;;;;;1.55;100.00;62899.56;4952559;29;20026;-94
2023/05/03 04:15:38;;;;;;;6.90;3.80;;;;;;;1.54;100.00;62898.25;4953685;29;20038;-95
2023/05/03 04:18:04;;;;;;;7.80;3.60;;;;;;;1.51;100.00;62896.19;4953670;29;20311;-94
2023/05/03 04:20:30;;;;;;;6.47;3.70;;;;;;;1.49;100.00;62894.19;4953231;29;20035;-94
2023/05/03 04:22:55;;;;;;;7.53;3.58;;;;;;;1.48;100.00;62892.53;4953474;29;20055;-93
2023/05/03 04:25:21;;;;;;;7.43;3.57;;;;;;;1.46;100.00;62891.38;4952335;29;20058;-94
2023/05/03 04:27:47;;;;;;;9.63;3.60;;;;;;;1.45;100.00;62889.56;4953890;29;20422;-95
2023/05/03 04:30:14;;;;;;;11.65;4.28;;;;;;;1.44;100.00;62889.06;4953171;29;20050;-94
2023/05/03 04:32:41;;;;;;;9.50;3.80;;;;;;;1.43;100.00;62888.25;4953834;29;20102;-95
2023/05/03 04:35:11;;;;;;;7.47;3.73;;;;;;;1.42;100.00;62887.50;4953629;29;20788;-93
2023/05/03 04:37:37;;;;;;;6.88;3.80;;;;;;;1.41;100.00;62887.00;4958059;29;20038;-92
2023/05/03 04:40:07;;;;;;;7.20;3.97;;;;;;;1.41;100.00;62887.34;4955893;29;20062;-93
2023/05/03 04:42:33;;;;;;;9.32;4.25;;;;;;;1.42;100.00;62887.91;4954796;29;20097;-95
2023/05/03 04:45:01;;;;;;;7.65;4.28;;;;;;;1.42;100.00;62888.22;4953437;29;20028;-95
2023/05/03 04:47:27;;;;;;;9.07;4.53;;;;;;;1.43;100.00;62889.06;4954131;29;20031;-93
2023/05/03 04:49:53;;;;;;;6.03;3.83;;;;;;;1.44;100.00;62890.47;4951846;28;20046;-95
2023/05/03 04:52:18;;;;;;;9.75;4.60;;;;;;;1.46;100.00;62892.09;4953090;29;20122;-94
2023/05/03 04:54:44;;;;;;;9.10;4.47;;;;;;;1.47;100.00;62893.84;4952559;29;20027;-94
2023/05/03 04:57:10;;;;;;;11.25;4.68;;;;;;;1.49;100.00;62895.84;4948146;29;20386;-94
2023/05/03 04:59:35;;;;;;;8.27;4.50;;;;;;;1.52;100.00;62898.53;4953055;29;20033;-93
2023/05/03 05:02:01;;;;;;;7.03;4.33;;;;;;;1.55;100.00;62901.28;4935111;29;20020;-95
2023/05/03 05:04:26;;;;;;;7.75;4.50;;;;;;;1.58;100.00;62905.00;4952793;29;20035;-95
2023/05/03 05:06:52;;;;;;;6.97;4.47;;;;;;;1.62;100.00;62908.44;4952607;29;20111;-95
2023/05/03 05:09:22;;;;;;;9.10;4.50;;;;;;;1.66;100.00;62912.25;4952267;29;20031;-95
2023/05/03 05:11:48;;;;;;;9.77;4.80;;;;;;;1.70;100.00;62916.72;4952521;29;20394;-95
2023/05/03 05:14:13;;;;;;;7.97;4.20;;;;;;;1.77;100.00;62923.56;4952591;29;20038;-94
2023/05/03 05:16:39;;;;;;;10.20;4.67;;;;;;;1.87;100.00;62932.97;4953511;29;20030;-94
2023/05/03 05:19:04;;;;;;;7.57;4.87;;;;;;;2.01;100.00;62946.88;4953729;29;20315;-95
2023/05/03 05:21:30;;;;;;;9.87;4.87;;;;;;;2.18;100.00;62964.63;4962942;29;20039;-94
2023/05/03 05:23:55;;;;;;;7.05;4.78;;;;;;;2.39;100.00;62985.84;4965287;28;20046;-95
2023/05/03 05:26:20;;;;;;;9.00;4.50;;;;;;;2.62;100.00;63008.72;4967277;29;20031;-95
2023/05/03 05:28:46;;;;;;;10.47;4.57;;;;;;;2.84;99.04;63030.72;4968167;29;20042;-95
2023/05/03 05:31:12;;;;;;;8.73;4.03;;;;;;;3.05;98.61;63051.38;4957252;29;20022;-93
2023/05/03 05:33:37;;;;;;;9.30;3.88;;;;;;;3.23;97.43;63069.97;4953093;29;20122;-90
2023/05/03 05:36:03;;;;;;;9.53;4.00;;;;;;;3.39;98.92;63085.81;4951776;29;20031;-92
2023/05/03 05:38:28;;;;;;;5.80;4.10;;;;;;;3.52;99.16;63099.66;4953429;29;20035;-91
2023/05/03 05:40:54;;;;;;;5.10;3.60;;;;;;;3.63;100.00;63110.41;4950490;29;20059;-91
2023/05/03 05:43:19;;;;;;;9.73;4.57;;;;;;;3.73;100.00;63120.56;4950965;29;20155;-87
2023/05/03 05:45:45;;;;;;;6.00;3.80;;;;;;;3.82;100.00;63129.31;4946557;28;20106;-87
2023/05/03 05:48:10;;;;;;;11.10;4.50;;;;;;;3.90;100.00;63137.59;4951444;29;20038;-89
2023/05/03 05:50:35;;;;;;;9.90;4.77;;;;;;;3.97;100.00;63144.72;4952260;29;20390;-88
2023/05/03 05:53:01;;;;;;;4.90;3.93;;;;;;;4.04;100.00;63151.25;4951564;29;20031;-89
2023/05/03 05:55:26;;;;;;;7.63;3.30;;;;;;;4.10;100.00;63157.38;4946307;29;20071;-87
2023/05/03 05:57:52;;;;;;;9.00;3.92;;;;;;;4.16;100.00;63163.25;4947562;29;20503;-87
2023/05/03 06:00:17;;;;;;;8.23;3.93;;;;;;;4.21;100.00;63168.78;4950655;29;20026;-87
2023/05/03 06:02:44;;;;;;;13.32;4.20;;;;;;;4.27;100.00;63174.75;4954143;28;20035;-87
2023/05/03 06:05:10;;;;;;;9.77;3.67;;;;;;;4.32;100.00;63180.53;4948169;29;20020;-87
2023/05/03 06:07:35;;;;;;;7.43;3.80;;;;;;;4.38;100.00;63185.91;4957544;29;20275;-87
2023/05/03 06:10:01;;;;;;;6.05;3.78;;;;;;;4.44;100.00;63191.53;4952342;29;20487;-87
2023/05/03 06:12:28;;;;;;;8.50;3.83;;;;;;;4.50;100.00;63198.00;4949600;29;20031;-86
2023/05/03 06:14:53;;;;;;;8.70;3.90;;;;;;;4.56;100.00;63204.19;4968865;28;20025;-88
2023/05/03 06:17:18;;;;;;;8.10;3.90;;;;;;;4.63;100.00;63210.91;4968052;28;20062;-90
2023/05/03 06:19:44;;;;;;;5.97;3.10;;;;;;;4.69;100.00;63217.53;4965230;28;20050;-86
2023/05/03 06:22:10;;;;;;;4.95;3.20;;;;;;;4.76;100.00;63224.22;4968537;28;20126;-87
2023/05/03 06:24:35;;;;;;;8.10;3.47;;;;;;;4.83;100.00;63231.28;4963028;28;20070;-87
2023/05/03 06:27:01;;;;;;;5.18;3.53;;;;;;;4.91;100.00;63238.53;4953700;29;20031;-87
2023/05/03 06:29:28;;;;;;;9.85;4.05;;;;;;;4.98;100.00;63245.75;4948997;29;20487;-86
2023/05/03 06:31:53;;;;;;;5.93;3.90;;;;;;;5.06;100.00;63253.53;4946134;29;20135;-86
2023/05/03 06:34:20;;;;;;;10.40;3.53;;;;;;;5.14;98.93;63261.31;4952517;29;20301;-87
2023/05/03 06:36:45;;;;;;;5.20;3.90;;;;;;;5.22;97.30;63269.59;4947915;28;20031;-87
2023/05/03 06:39:11;;;;;;;6.33;3.67;;;;;;;5.30;97.34;63277.88;4949605;29;20035;-87
2023/05/03 06:41:36;;;;;;;7.70;3.80;;;;;;;5.38;96.89;63285.91;4960731;28;20031;-87
2023/05/03 06:44:03;;;;;;;7.13;3.60;;;;;;;5.46;96.08;63293.88;4954731;28;20563;-87
2023/05/03 06:46:28;;;;;;;8.30;3.03;;;;;;;5.55;94.61;63302.31;4964399;28;20051;-87
2023/05/03 06:48:57;;;;;;;6.95;4.22;;;;;;;5.63;93.06;63310.19;4954738;29;20423;-88
2023/05/03 06:51:26;;;;;;;6.70;3.67;;;;;;;5.71;93.09;63318.47;4954265;29;20058;-87
2023/05/03 06:53:54;;;;;;;7.90;3.77;;;;;;;5.79;93.26;63326.91;4954294;29;20027;-87
2023/05/03 06:56:20;;;;;;;5.10;3.77;;;;;;;5.88;93.07;63334.88;4953461;28;20298;-87
2023/05/03 06:58:45;;;;;;;6.97;3.67;;;;;;;5.96;91.99;63342.75;4953994;29;20114;-87
2023/05/03 07:01:10;;;;;;;8.40;4.10;;;;;;;6.04;92.53;63351.47;4952474;29;20094;-87
2023/05/03 07:03:37;;;;;;;9.50;3.85;;;;;;;6.13;91.37;63359.97;4954028;29;20812;-87
2023/05/03 07:06:03;;;;;;;9.70;4.20;;;;;;;6.21;91.60;63368.28;4953508;29;20115;-87
2023/05/03 07:08:28;;;;;;;6.72;3.45;;;;;;;6.29;91.24;63376.41;4936979;29;20030;-87
2023/05/03 07:10:53;;;;;;;8.30;3.60;;;;;;;6.38;91.27;63384.94;4953976;29;20066;-87
2023/05/03 07:13:19;;;;;;;10.48;3.97;;;;;;;6.46;90.49;63393.63;4953124;28;20050;-87
2023/05/03 07:15:44;;;;;;;8.50;4.40;;;;;;;6.55;90.17;63402.59;4951282;29;20054;-87
2023/05/03 07:18:10;;;;;;;4.87;3.67;;;;;;;6.64;87.65;63412.09;4936325;29;20035;-87
2023/05/03 07:20:35;;;;;;;8.30;3.60;;;;;;;6.73;86.98;63421.91;4953671;29;20034;-87
2023/05/03 07:23:01;;;;;;;6.43;3.20;;;;;;;6.82;85.95;63431.09;4950980;29;20443;-88
2023/05/03 07:25:26;;;;;;;5.40;3.27;;;;;;;6.92;86.71;63440.88;4949166;29;20101;-87
2023/05/03 07:27:51;;;;;;;7.93;3.80;;;;;;;7.01;85.33;63449.91;4953615;29;20031;-87
2023/05/03 07:30:17;;;;;;;10.10;4.03;;;;;;;7.10;83.29;63459.28;4953430;29;20439;-87
2023/05/03 07:32:42;;;;;;;7.97;3.63;;;;;;;7.20;83.45;63468.91;4952753;29;20035;-87
2023/05/03 07:35:08;;;;;;;5.93;3.60;;;;;;;7.30;82.65;63478.69;4953057;29;20051;-87
2023/05/03 07:37:33;;;;;;;6.38;3.17;;;;;;;7.39;81.37;63487.81;4953555;29;20445;-87
2023/05/03 07:39:59;;;;;;;7.87;3.83;;;;;;;7.48;82.07;63496.88;4953080;29;20435;-87
2023/05/03 07:42:24;;;;;;;7.23;2.90;;;;;;;7.57;79.28;63505.66;4953724;29;20028;-87
2023/05/03 07:44:50;;;;;;;5.43;3.10;;;;;;;7.65;78.42;63514.63;4953123;29;20037;-86
2023/05/03 07:47:15;;;;;;;10.82;3.60;;;;;;;7.74;80.17;63522.91;4951804;29;20024;-87
2023/05/03 07:49:41;;;;;;;8.97;3.67;;;;;;;7.83;80.25;63532.03;4953373;29;20046;-86
2023/05/03 07:52:06;;;;;;;6.77;3.20;;;;;;;7.91;78.51;63540.56;4953200;29;20541;-87
2023/05/03 07:54:31;;;;;;;6.63;3.30;;;;;;;8.00;78.09;63549.47;4945255;29;20035;-86
2023/05/03 07:56:57;;;;;;;9.87;3.27;;;;;;;8.08;76.54;63558.41;4952861;29;20039;-87
2023/05/03 07:59:22;;;;;;;7.35;3.17;;;;;;;8.17;76.70;63567.47;4953177;29;20445;-87
2023/05/03 08:01:47;;;;;;;4.97;2.80;;;;;;;8.27;78.13;63577.09;4952921;29;20054;-88
2023/05/03 08:04:13;;;;;;;10.27;3.70;;;;;;;8.36;76.02;63586.38;4952014;29;20070;-88
2023/05/03 08:06:38;;;;;;;6.17;2.70;;;;;;;8.46;72.53;63596.50;4952970;29;20679;-88
2023/05/03 08:09:04;;;;;;;6.60;2.67;;;;;;;8.55;68.37;63606.25;4953135;29;20023;-88
2023/05/03 08:11:29;;;;;;;5.97;3.03;;;;;;;8.64;69.17;63615.53;4954088;29;20035;-87
2023/05/03 08:13:55;;;;;;;5.70;2.97;;;;;;;8.73;70.13;63624.59;4955951;29;20034;-87
2023/05/03 08:16:20;;;;;;;6.43;2.80;;;;;;;8.82;68.23;63633.31;4953426;29;20035;-87
2023/05/03 08:18:46;;;;;;;11.00;3.10;;;;;;;8.91;68.49;63642.69;4934970;29;20416;-88
2023/05/03 08:21:12;;;;;;;3.73;2.40;;;;;;;9.01;68.71;63652.00;4953227;29;20034;-87
2023/05/03 08:23:38;;;;;;;5.25;2.78;;;;;;;9.10;66.91;63661.47;4953102;29;20024;-87
2023/05/03 08:26:06;;;;;;;7.28;2.97;;;;;;;9.20;69.15;63671.00;4950797;28;20521;-87
2023/05/03 08:28:31;;;;;;;4.07;2.60;;;;;;;9.29;67.18;63680.31;4944327;29;20069;-87
2023/05/03 08:30:57;;;;;;;8.63;2.63;;;;;;;9.38;68.39;63689.38;4952832;29;20483;-87
2023/05/03 08:33:22;;;;;;;7.07;3.00;;;;;;;9.47;66.86;63698.19;4950862;29;20059;-87
2023/05/03 08:35:48;;;;;;;3.78;2.80;;;;;;;9.55;67.29;63706.75;4952109;29;20027;-88
2023/05/03 08:38:14;;;;;;;6.05;2.70;;;;;;;9.63;65.46;63715.38;4952523;29;20050;-87
2023/05/03 08:40:40;;;;;;;3.67;2.97;;;;;;;9.71;64.62;63723.38;4952673;29;20106;-87
2023/05/03 08:43:08;;;;;;;4.80;2.83;;;;;;;9.79;64.61;63731.00;4952389;29;20019;-87
2023/05/03 08:45:34;;;;;;;5.43;2.70;;;;;;;9.87;64.43;63738.91;4952278;29;20107;-87
2023/05/03 08:48:03;;;;;;;5.10;2.50;;;;;;;9.95;63.58;63747.53;4935702;29;20487;-87
2023/05/03 08:50:28;;;;;;;4.18;2.90;;;;;;;10.04;60.79;63755.84;4951096;29;20190;-88
2023/05/03 08:52:54;;;;;;;7.50;3.07;;;;;;;10.12;62.46;63763.84;4952876;29;20110;-87
2023/05/03 08:55:20;;;;;;;6.00;2.60;;;;;;;10.21;60.85;63772.47;4951946;29;20311;-87
2023/05/03 08:57:45;;;;;;;5.57;2.77;;;;;;;10.30;61.51;63782.47;4952547;29;20073;-87
2023/05/03 09:00:13;;;;;;;7.43;3.00;;;;;;;10.40;60.12;63791.38;4952946;29;20443;-87
2023/05/03 09:02:39;;;;;;;6.40;2.80;;;;;;;10.48;58.14;63800.19;4952596;29;20114;-87
2023/05/03 09:05:14;;;;;;;10.03;2.77;;;;;;;10.57;60.93;63808.75;4950916;29;20423;-87
2023/05/03 09:07:39;;;;;;;6.18;3.00;;;;;;;10.66;60.37;63817.97;4952282;29;20094;-87
2023/05/03 09:10:21;;;;;;;6.80;2.77;;;;;;;10.75;60.71;63827.69;4951675;29;20035;-87
2023/05/03 09:12:46;;;;;;;5.80;2.72;;;;;;;10.85;58.96;63837.69;4952497;29;20031;-87
2023/05/03 09:15:21;;;;;;;4.37;2.80;;;;;;;10.94;59.13;63847.25;4951338;29;20031;-87
2023/05/03 09:18:06;;;;;;;8.40;2.80;;;;;;;11.04;57.33;63857.72;4952170;29;20024;-87
2023/05/03 09:20:35;;;;;;;5.45;2.90;;;;;;;11.13;57.73;63866.88;4949936;29;20043;-87
2023/05/03 09:23:01;;;;;;;5.22;2.85;;;;;;;11.23;57.28;63876.75;4951830;29;20170;-88
2023/05/03 09:25:48;;;;;;;9.23;2.83;;;;;;;11.32;58.33;63886.25;4951279;29;20110;-87
2023/05/03 09:28:15;;;;;;;6.35;2.90;;;;;;;11.41;54.40;63895.06;4951732;29;20517;-87
2023/05/03 09:30:41;;;;;;;5.57;2.63;;;;;;;11.50;55.19;63903.81;4951651;29;20038;-87
2023/05/03 09:33:07;;;;;;;5.57;2.83;;;;;;;11.59;54.41;63913.28;4951582;29;20278;-87
2023/05/03 09:35:33;;;;;;;6.18;3.03;;;;;;;11.68;54.08;63921.88;4933707;29;20027;-87
2023/05/03 09:37:59;;;;;;;7.97;2.95;;;;;;;11.76;53.36;63930.59;4954486;28;20656;-87
2023/05/03 09:40:28;;;;;;;5.53;3.35;;;;;;;11.84;56.20;63938.34;4955829;29;20055;-87
2023/05/03 09:43:10;;;;;;;3.63;2.77;;;;;;;11.93;57.03;63947.50;4955607;29;20106;-87
2023/05/03 09:45:36;;;;;;;7.07;2.90;;;;;;;12.02;54.74;63956.34;4936225;29;20024;-87
2023/05/03 09:48:03;;;;;;;7.90;3.20;;;;;;;12.10;53.84;63965.22;4936746;29;20063;-87
2023/05/03 09:50:31;;;;;;;5.03;3.40;;;;;;;12.18;53.44;63972.97;4936944;29;20031;-87
2023/05/03 09:53:00;;;;;;;10.43;3.30;;;;;;;12.26;52.12;63980.91;4936974;29;20391;-87
2023/05/03 09:55:26;;;;;;;4.38;3.08;;;;;;;12.33;52.16;63988.28;4936179;29;20405;-87
2023/05/03 09:57:54;;;;;;;5.47;2.75;;;;;;;12.41;53.89;63996.72;4937007;29;20028;-87
2023/05/03 10:00:19;;;;;;;8.88;3.30;;;;;;;12.49;53.03;64004.94;4950462;29;20028;-87
2023/05/03 10:02:48;;;;;;;5.53;3.00;;;;;;;12.57;52.57;64013.47;4955609;29;20355;-87
2023/05/03 10:05:15;;;;;;;4.18;3.00;;;;;;;12.67;53.84;64022.34;4954281;29;20102;-87
2023/05/03 10:07:42;;;;;;;5.45;2.72;;;;;;;12.75;52.08;64031.69;4938067;29;20040;-87
2023/05/03 10:10:07;;;;;;;4.85;3.10;;;;;;;12.84;50.61;64041.09;4954899;29;20082;-86
2023/05/03 10:12:35;;;;;;;7.60;3.03;;;;;;;12.93;51.34;64050.00;4955698;29;20035;-87
2023/05/03 10:15:06;;;;;;;7.28;3.50;;;;;;;13.02;50.06;64058.41;4953190;29;20046;-87
2023/05/03 10:17:36;;;;;;;6.88;3.30;;;;;;;13.10;51.01;64067.00;4955936;29;20027;-86
2023/05/03 10:20:13;;;;;;;8.30;2.65;;;;;;;13.20;50.33;64076.50;4955795;29;20042;-86
2023/05/03 10:23:04;;;;;;;8.57;2.78;;;;;;;13.30;51.42;64086.91;4955030;29;20050;-87
2023/05/03 10:25:30;;;;;;;3.95;2.95;;;;;;;13.39;48.76;64096.00;4954985;29;20159;-87
2023/05/03 10:28:04;;;;;;;6.10;3.25;;;;;;;13.47;48.77;64104.34;4955515;29;20035;-86
2023/05/03 10:30:37;;;;;;;7.72;3.30;;;;;;;13.55;50.10;64112.34;4954168;29;20035;-86
2023/05/03 10:33:09;;;;;;;5.88;2.90;;;;;;;13.61;49.13;64118.59;4954641;29;20035;-87
2023/05/03 10:35:39;;;;;;;5.23;3.43;;;;;;;13.68;48.02;64124.59;4956610;29;20087;-86
2023/05/03 10:38:24;;;;;;;5.23;3.20;;;;;;;13.75;49.16;64131.50;4956621;29;20302;-87
2023/05/03 10:40:50;;;;;;;7.20;3.40;;;;;;;13.82;47.39;64138.59;4937451;29;20066;-87
2023/05/03 10:43:31;;;;;;;6.82;3.30;;;;;;;13.89;48.01;64145.69;4954487;29;20077;-87
2023/05/03 10:46:10;;;;;;;8.90;3.28;;;;;;;13.95;50.27;64151.84;4953124;29;20034;-87
2023/05/03 10:48:36;;;;;;;6.07;3.30;;;;;;;14.02;48.56;64158.94;4936510;29;20552;-87
2023/05/03 10:51:27;;;;;;;6.35;3.33;;;;;;;14.09;48.64;64165.88;4954136;29;20020;-87
2023/05/03 10:53:53;;;;;;;4.93;3.43;;;;;;;14.15;48.77;64172.53;4953951;29;20043;-87
2023/05/03 10:56:18;;;;;;;4.27;3.00;;;;;;;14.23;48.46;64180.44;4953378;29;20305;-87
2023/05/03 10:58:45;;;;;;;6.43;3.57;;;;;;;14.31;46.64;64187.94;4954261;29;20391;-87
2023/05/03 11:01:16;;;;;;;4.80;3.35;;;;;;;14.37;47.07;64194.28;4952018;29;20813;-86
2023/05/03 11:03:49;;;;;;;9.73;3.30;;;;;;;14.44;47.05;64201.44;4953856;29;20035;-87
2023/05/03 11:06:35;;;;;;;6.38;3.13;;;;;;;14.50;49.02;64207.88;4934620;29;20499;-87
2023/05/03 11:09:03;;;;;;;5.07;3.43;;;;;;;14.57;46.03;64214.97;4934299;29;20453;-87
2023/05/03 11:11:28;;;;;;;6.87;3.00;;;;;;;14.65;46.74;64223.22;4935054;29;20342;-87
2023/05/03 11:13:54;;;;;;;6.13;3.53;;;;;;;14.72;45.04;64230.91;4934674;29;20031;-86
2023/05/03 11:16:20;;;;;;;9.33;3.47;;;;;;;14.80;44.84;64238.75;4934242;29;20024;-88
2023/05/03 11:18:47;;;;;;;9.20;3.45;;;;;;;14.87;46.22;64245.44;4953442;29;20462;-87
2023/05/03 11:21:13;;;;;;;6.88;3.65;;;;;;;14.93;45.58;64251.84;4953815;29;20348;-88
2023/05/03 11:23:40;;;;;;;5.75;3.80;;;;;;;15.01;46.35;64259.34;4936371;29;20042;-87
2023/05/03 11:26:06;;;;;;;6.63;3.60;;;;;;;15.08;44.84;64267.09;4953079;29;20016;-88
2023/05/03 11:28:31;;;;;;;10.07;3.53;;;;;;;15.15;45.21;64274.22;4953999;29;20054;-88
2023/05/03 11:30:56;;;;;;;9.00;3.60;;;;;;;15.22;44.84;64281.22;4953790;29;20055;-88
2023/05/03 11:33:22;;;;;;;7.57;4.03;;;;;;;15.28;45.86;64287.81;4951028;29;20109;-88